Time;durP1;ratioP1;P1;durP2;ratioP2;P2;SDS_P1;SDS_P2;PMS_P1;PMS_P2;Temp;Humidity;BMP_temperature;BMP_pressure;BME280_temperature;BME280_humidity;BME280_pressure;Samples;Min_cycle;Max_cycle;Signal;HPM_P1;HPM_P2
2022/10/07 00:02:15;;;;;;;;;30.75;25.00;;;;;16.27;49.43;102192.19;5100190;27;45291;-45
2022/10/07 00:04:44;;;;;;;;;33.75;28.25;;;;;16.26;49.35;102179.88;5099950;27;46222;-43
2022/10/07 00:07:10;;;;;;;;;29.25;23.25;;;;;16.27;49.75;102188.66;5098806;27;45446;-44
2022/10/07 00:09:35;;;;;;;;;29.50;24.75;;;;;16.25;49.71;102182.56;5071698;27;45542;-43
2022/10/07 00:12:01;;;;;;;;;35.75;27.75;;;;;16.22;50.06;102178.25;5065021;27;45546;-46
2022/10/07 00:14:26;;;;;;;;;31.00;22.25;;;;;16.21;49.99;102176.50;5092617;27;45560;-44
2022/10/07 00:16:52;;;;;;;;;39.75;31.75;;;;;16.22;50.08;102180.00;5081410;27;45287;-43
2022/10/07 00:19:17;;;;;;;;;28.00;23.75;;;;;16.21;50.03;102175.63;5099991;27;45496;-46
2022/10/07 00:21:42;;;;;;;;;33.75;28.00;;;;;16.20;50.21;102169.50;5078264;28;45625;-46
2022/10/07 00:24:09;;;;;;;;;31.75;26.75;;;;;16.21;50.00;102168.56;5096447;27;46095;-45
2022/10/07 00:26:35;;;;;;;;;29.50;22.00;;;;;16.20;50.32;102176.53;5097308;27;45972;-45
2022/10/07 00:29:02;;;;;;;;;34.00;26.50;;;;;16.18;50.18;102166.00;5077114;28;45324;-43
2022/10/07 00:31:30;;;;;;;;;30.75;26.50;;;;;16.18;50.28;102173.94;5092141;27;45442;-43
2022/10/07 00:33:56;;;;;;;;;30.50;26.50;;;;;16.17;50.27;102174.84;5099614;27;46138;-43
2022/10/07 00:36:26;;;;;;;;;35.50;28.50;;;;;16.15;50.30;102171.38;5098952;27;45463;-43
2022/10/07 00:38:57;;;;;;;;;39.00;25.50;;;;;16.10;50.29;102160.94;5085574;27;45304;-49
2022/10/07 00:41:39;;;;;;;;;28.75;19.75;;;;;16.06;50.42;102164.59;5078628;27;45395;-46
2022/10/07 00:44:32;;;;;;;;;34.75;25.50;;;;;16.01;50.68;102161.19;5100601;27;46086;-45
2022/10/07 00:47:17;;;;;;;;;38.50;26.25;;;;;15.97;50.70;102156.91;5101180;27;45361;-43
2022/10/07 00:49:50;;;;;;;;;32.75;26.00;;;;;15.94;50.58;102154.34;5081537;27;45352;-43
2022/10/07 00:52:19;;;;;;;;;33.25;29.75;;;;;15.94;50.48;102157.00;5097827;27;45402;-44
2022/10/07 00:54:45;;;;;;;;;39.00;28.50;;;;;15.91;50.82;102151.78;5079050;27;46228;-45
2022/10/07 00:57:10;;;;;;;;;39.00;28.75;;;;;15.86;50.84;102146.63;5099394;27;45857;-43
2022/10/07 00:59:38;;;;;;;;;37.75;28.75;;;;;15.88;50.68;102146.56;5098831;27;63765;-45
2022/10/07 01:02:03;;;;;;;;;30.00;28.25;;;;;15.87;50.93;102151.00;5098643;27;45372;-43
2022/10/07 01:04:28;;;;;;;;;37.25;25.75;;;;;15.85;51.06;102147.53;5099503;27;46603;-43
2022/10/07 01:06:54;;;;;;;;;36.25;30.25;;;;;15.83;51.13;102137.91;5076534;28;45257;-43
2022/10/07 01:09:20;;;;;;;;;36.00;28.00;;;;;15.80;51.06;102138.88;5097227;27;45214;-43
2022/10/07 01:11:45;;;;;;;;;35.50;30.25;;;;;15.75;51.40;102138.97;5077747;28;45357;-43
2022/10/07 01:14:28;;;;;;;;;42.67;27.00;;;;;15.70;51.41;102137.34;5097321;27;45463;-44
2022/10/07 01:17:02;;;;;;;;;37.75;30.75;;;;;15.67;51.34;102134.78;5099048;27;45324;-44
2022/10/07 01:19:55;;;;;;;;;37.50;31.50;;;;;15.59;51.69;102124.44;5099227;27;45494;-43
2022/10/07 01:22:42;;;;;;;;;37.50;29.25;;;;;15.52;51.44;102118.44;5093466;27;45540;-43
2022/10/07 01:25:13;;;;;;;;;33.00;27.75;;;;;15.49;51.55;102115.91;5102222;27;46407;-42
2022/10/07 01:27:52;;;;;;;;;37.25;28.25;;;;;15.45;51.69;102116.84;5101424;27;45351;-43
2022/10/07 01:30:18;;;;;;;;;44.00;31.25;;;;;15.46;52.06;102120.38;5102530;27;45264;-43
2022/10/07 01:32:52;;;;;;;;;40.00;29.25;;;;;15.42;51.55;102122.19;5101510;27;45454;-42
2022/10/07 01:35:21;;;;;;;;;38.75;29.25;;;;;15.37;51.84;102114.41;5100274;27;45260;-43
2022/10/07 01:37:50;;;;;;;;;35.50;29.75;;;;;15.35;51.87;102115.34;5073816;28;46011;-43
2022/10/07 01:40:26;;;;;;;;;37.00;26.75;;;;;15.31;52.23;102111.06;5101555;27;45388;-45
2022/10/07 01:42:52;;;;;;;;;37.25;26.25;;;;;15.30;51.70;102099.66;5102117;27;45217;-43
2022/10/07 01:45:20;;;;;;;;;36.00;27.25;;;;;15.29;51.86;102100.53;5080728;28;45218;-46
2022/10/07 01:47:50;;;;;;;;;30.75;27.00;;;;;15.31;51.89;102100.50;5096684;27;45307;-43
2022/10/07 01:50:16;;;;;;;;;33.75;27.75;;;;;15.31;52.29;102097.88;5084023;27;45323;-44
2022/10/07 01:52:54;;;;;;;;;40.50;29.25;;;;;15.30;52.06;102094.38;5067307;27;45508;-43
2022/10/07 01:55:54;;;;;;;;;38.00;28.50;;;;;15.30;52.13;102090.88;5101042;27;46263;-47
2022/10/07 01:58:26;;;;;;;;;35.00;26.75;;;;;15.29;51.88;102082.09;5087715;27;45895;-44
2022/10/07 02:01:00;;;;;;;;;32.75;25.25;;;;;15.29;52.21;102082.09;5074912;27;45415;-43
2022/10/07 02:03:47;;;;;;;;;33.75;28.75;;;;;15.28;51.99;102076.84;5102189;27;45497;-42
2022/10/07 02:06:22;;;;;;;;;41.25;30.00;;;;;15.25;52.33;102071.66;5101751;27;45526;-44
2022/10/07 02:08:50;;;;;;;;;32.75;27.75;;;;;15.23;51.84;102076.09;5080011;27;45925;-44
2022/10/07 02:11:26;;;;;;;;;31.00;26.25;;;;;15.23;52.45;102069.06;5080237;28;45409;-47
2022/10/07 02:14:03;;;;;;;;;33.50;28.50;;;;;15.24;52.17;102056.72;5094780;27;45596;-46
2022/10/07 02:16:32;;;;;;;;;33.75;24.25;;;;;15.21;52.46;102054.16;5080263;28;46130;-44
2022/10/07 02:19:01;;;;;;;;;27.75;25.00;;;;;15.19;52.08;102048.94;5079437;27;45897;-44
2022/10/07 02:21:28;;;;;;;;;36.50;23.50;;;;;15.17;52.60;102056.91;5079042;28;45561;-43
2022/10/07 02:23:56;;;;;;;;;33.25;22.75;;;;;15.16;52.07;102055.16;5079268;27;45560;-47
2022/10/07 02:26:23;;;;;;;;;35.75;23.75;;;;;15.15;52.39;102047.28;5083915;27;45452;-45
2022/10/07 02:28:50;;;;;;;;;23.50;20.00;;;;;15.15;52.22;102042.00;5101361;27;45917;-47
2022/10/07 02:31:21;;;;;;;;;27.50;22.75;;;;;15.12;52.61;102032.41;5101204;27;45272;-43
2022/10/07 02:33:46;;;;;;;;;25.00;20.25;;;;;15.12;52.29;102032.41;5079836;28;45415;-45
2022/10/07 02:36:15;;;;;;;;;30.00;23.25;;;;;15.12;52.38;102029.78;5080271;27;45359;-45
2022/10/07 02:38:41;;;;;;;;;21.00;17.00;;;;;15.15;52.59;102028.81;5066546;27;45983;-45
2022/10/07 02:41:30;;;;;;;;;21.75;18.75;;;;;15.14;52.71;102030.59;5100944;27;45324;-47
2022/10/07 02:44:26;;;;;;;;;24.25;19.25;;;;;15.12;52.53;102024.50;5079937;27;45580;-48
2022/10/07 02:47:18;;;;;;;;;30.00;25.25;;;;;15.05;52.71;102012.38;5098331;27;45705;-47
2022/10/07 02:49:48;;;;;;;;;30.75;24.50;;;;;15.07;52.79;102020.22;5085242;27;45644;-47
2022/10/07 02:52:15;;;;;;;;;29.50;25.50;;;;;15.03;52.99;102022.09;5083155;27;45455;-44
2022/10/07 02:55:03;;;;;;;;;32.50;25.25;;;;;14.97;52.49;102016.97;5085671;27;45327;-44
2022/10/07 02:57:32;;;;;;;;;34.50;26.50;;;;;14.95;52.58;102019.66;5082588;27;46973;-44
2022/10/07 02:59:59;;;;;;;;;32.00;26.00;;;;;14.94;53.04;102014.41;5083919;27;45429;-46
2022/10/07 03:02:49;;;;;;;;;34.25;25.50;;;;;14.94;53.08;102011.78;5101193;27;45292;-48
2022/10/07 03:05:18;;;;;;;;;32.50;23.75;;;;;14.94;53.07;102006.50;5079338;28;45351;-49
2022/10/07 03:07:47;;;;;;;;;30.00;25.00;;;;;14.90;52.74;102005.72;5079407;27;45505;-47
2022/10/07 03:10:13;;;;;;;;;30.50;24.25;;;;;14.90;53.17;102003.06;5082333;27;45453;-48
2022/10/07 03:12:39;;;;;;;;;29.00;25.75;;;;;14.90;52.77;102007.50;5082575;27;45578;-48
2022/10/07 03:15:04;;;;;;;;;29.25;26.25;;;;;14.88;53.18;102002.25;5081668;27;66911;-45
2022/10/07 03:17:30;;;;;;;;;32.50;24.75;;;;;14.84;53.24;101994.44;5099732;27;45332;-49
2022/10/07 03:19:55;;;;;;;;;27.50;23.00;;;;;14.81;53.12;102001.53;5098991;27;63475;-48
2022/10/07 03:22:20;;;;;;;;;36.25;26.00;;;;;14.79;52.85;101994.56;5099991;27;61509;-49
2022/10/07 03:24:46;;;;;;;;;26.00;22.25;;;;;14.81;53.43;101998.03;5099754;27;69234;-45
2022/10/07 03:27:11;;;;;;;;;31.50;24.75;;;;;14.78;53.10;101991.09;5100203;27;57629;-43
2022/10/07 03:29:36;;;;;;;;;26.00;22.00;;;;;14.76;53.54;101992.88;5078454;28;64983;-42
2022/10/07 03:32:02;;;;;;;;;31.25;22.25;;;;;14.75;53.56;101988.53;5078769;27;50066;-43
2022/10/07 03:34:30;;;;;;;;;24.00;23.25;;;;;14.73;53.45;101987.69;5080341;27;46572;-44
2022/10/07 03:36:56;;;;;;;;;29.25;21.25;;;;;14.71;53.20;101991.25;5078620;27;46150;-42
2022/10/07 03:39:21;;;;;;;;;26.25;20.25;;;;;14.68;52.99;101984.31;5100855;27;45429;-43
2022/10/07 03:41:48;;;;;;;;;32.75;22.75;;;;;14.67;53.42;101981.69;5099305;27;45780;-43
2022/10/07 03:44:14;;;;;;;;;28.25;21.50;;;;;14.64;53.27;101977.34;5082577;27;45237;-45
2022/10/07 03:46:40;;;;;;;;;24.00;18.75;;;;;14.63;53.20;101982.69;5079926;27;47665;-42
2022/10/07 03:49:05;;;;;;;;;25.50;22.75;;;;;14.61;53.47;101977.44;5100463;27;45304;-43
2022/10/07 03:51:31;;;;;;;;;29.50;22.75;;;;;14.55;53.52;101975.75;5096019;27;63125;-44
2022/10/07 03:53:57;;;;;;;;;26.00;18.75;;;;;14.54;53.47;101981.09;5091076;27;45339;-42
2022/10/07 03:56:23;;;;;;;;;32.00;23.25;;;;;14.51;53.33;101981.16;5100055;27;45368;-44
2022/10/07 03:58:49;;;;;;;;;26.25;23.75;;;;;14.50;53.37;101972.41;5098203;27;45324;-42
2022/10/07 04:01:14;;;;;;;;;25.00;21.75;;;;;14.50;53.42;101979.41;5100800;27;45585;-44
2022/10/07 04:03:40;;;;;;;;;24.25;21.50;;;;;14.48;53.79;101971.53;5065322;27;45344;-44
2022/10/07 04:06:05;;;;;;;;;28.50;22.00;;;;;14.48;53.37;101974.19;5081564;27;45361;-44
2022/10/07 04:08:32;;;;;;;;;28.25;23.25;;;;;14.47;53.63;101976.88;5099420;27;45357;-43
2022/10/07 04:10:57;;;;;;;;;30.75;22.75;;;;;14.48;53.58;101974.19;5081150;27;45206;-43
2022/10/07 04:13:23;;;;;;;;;26.00;21.75;;;;;14.50;53.83;101966.25;5097118;27;45529;-50
2022/10/07 04:15:48;;;;;;;;;27.25;22.50;;;;;14.48;53.47;101968.91;5099904;27;45432;-44
2022/10/07 04:18:14;;;;;;;;;22.50;20.25;;;;;14.49;54.10;101970.66;5080906;27;67000;-43
2022/10/07 04:20:39;;;;;;;;;25.50;22.00;;;;;14.50;53.75;101972.41;5100007;27;45510;-45
2022/10/07 04:23:05;;;;;;;;;21.25;19.50;;;;;14.51;53.99;101970.63;5077481;27;46328;-43
2022/10/07 04:25:33;;;;;;;;;30.50;20.75;;;;;14.49;54.18;101968.03;5074156;28;45372;-43
2022/10/07 04:28:00;;;;;;;;;26.25;16.00;;;;;14.49;53.85;101967.16;5091003;27;45326;-45
2022/10/07 04:30:26;;;;;;;;;24.75;18.75;;;;;14.46;53.77;101962.81;5100031;27;45265;-45
2022/10/07 04:32:52;;;;;;;;;23.75;18.25;;;;;14.46;54.26;101954.91;5099666;27;45355;-43
2022/10/07 04:35:21;;;;;;;;;18.75;16.00;;;;;14.47;53.74;101966.34;5098679;27;69305;-43
2022/10/07 04:37:47;;;;;;;;;19.00;18.25;;;;;14.45;54.06;101950.56;5094613;27;45341;-43
2022/10/07 04:40:13;;;;;;;;;19.00;16.50;;;;;14.47;54.02;101955.81;5096956;27;45351;-41
2022/10/07 04:45:22;;;;;;;;;28.50;18.00;;;;;14.48;54.25;101961.00;5065495;28;45466;-43
2022/10/07 04:47:48;;;;;;;;;23.00;18.25;;;;;14.46;54.04;101956.69;5083389;27;45336;-42
2022/10/07 04:50:13;;;;;;;;;17.75;15.25;;;;;14.44;54.08;101949.69;5099585;27;45805;-42
2022/10/07 04:52:39;;;;;;;;;26.00;16.75;;;;;14.48;54.51;101955.75;5099363;27;45490;-43
2022/10/07 04:55:05;;;;;;;;;20.00;17.00;;;;;14.49;54.04;101956.63;5101854;27;46602;-42
2022/10/07 04:57:31;;;;;;;;;20.25;16.75;;;;;14.49;54.33;101946.09;5071242;27;45360;-43
2022/10/07 04:59:56;;;;;;;;;23.25;18.00;;;;;14.50;54.02;101942.53;5102453;27;45262;-42
2022/10/07 05:02:22;;;;;;;;;18.00;14.75;;;;;14.50;54.37;101940.78;5100955;27;63801;-42
2022/10/07 05:04:47;;;;;;;;;18.75;16.00;;;;;14.50;54.17;101940.78;5101066;27;59233;-44
2022/10/07 05:07:13;;;;;;;;;19.25;16.50;;;;;14.50;54.19;101938.16;5083790;27;45301;-43
2022/10/07 05:09:38;;;;;;;;;21.50;16.00;;;;;14.51;54.04;101937.25;5081904;27;45358;-44
2022/10/07 05:12:04;;;;;;;;;20.00;17.50;;;;;14.48;53.81;101942.56;5095565;27;45620;-43
2022/10/07 05:14:30;;;;;;;;;22.00;17.75;;;;;14.47;53.94;101945.28;5101130;27;45442;-45
2022/10/07 05:16:56;;;;;;;;;23.00;19.75;;;;;14.43;54.47;101945.34;5089514;27;45760;-45
2022/10/07 05:19:21;;;;;;;;;17.00;14.00;;;;;14.40;54.05;101947.19;5101586;27;59722;-44
2022/10/07 05:21:46;;;;;;;;;26.00;18.50;;;;;14.36;54.13;101950.75;5102675;27;45312;-49
2022/10/07 05:24:12;;;;;;;;;21.25;17.75;;;;;14.31;54.30;101939.50;5078245;27;70094;-43
2022/10/07 05:26:37;;;;;;;;;22.00;16.00;;;;;14.32;54.25;101935.94;5083684;27;51486;-44
2022/10/07 05:29:02;;;;;;;;;22.00;17.75;;;;;14.33;54.65;101935.91;5102071;27;54457;-44
2022/10/07 05:31:28;;;;;;;;;19.25;17.25;;;;;14.34;54.55;101940.28;5078981;27;45366;-44
2022/10/07 05:33:55;;;;;;;;;23.00;19.00;;;;;14.36;54.34;101938.47;5094389;27;46111;-43
2022/10/07 05:36:20;;;;;;;;;25.25;20.75;;;;;14.32;54.20;101936.81;5101320;27;45355;-44
2022/10/07 05:38:46;;;;;;;;;19.75;17.50;;;;;14.32;54.29;101936.81;5080632;27;45329;-43
2022/10/07 05:41:11;;;;;;;;;20.75;18.25;;;;;14.32;54.65;101931.53;5095395;27;45323;-44
2022/10/07 05:43:41;;;;;;;;;20.75;17.50;;;;;14.33;54.74;101929.78;5102373;27;46160;-42
2022/10/07 05:46:11;;;;;;;;;24.00;17.25;;;;;14.34;54.53;101928.88;5099921;27;45459;-45
2022/10/07 05:48:36;;;;;;;;;21.00;15.75;;;;;14.34;54.52;101929.75;5096397;27;45491;-43
2022/10/07 05:51:02;;;;;;;;;19.50;16.00;;;;;14.38;54.40;101930.56;5076719;27;63576;-44
2022/10/07 05:53:28;;;;;;;;;21.75;17.00;;;;;14.39;54.57;101937.53;5102376;27;45284;-44
2022/10/07 05:55:54;;;;;;;;;22.00;16.25;;;;;14.40;54.77;101932.22;5092365;27;45984;-47
2022/10/07 05:58:21;;;;;;;;;16.00;10.00;;;;;14.43;54.83;101933.94;5102282;27;45359;-44
2022/10/07 06:00:57;;;;;;;;;18.00;15.00;;;;;14.42;54.17;101932.19;5096175;27;45445;-44
2022/10/07 06:03:27;;;;;;;;;18.00;15.75;;;;;14.40;54.04;101937.50;5083160;27;46624;-43
2022/10/07 06:05:53;;;;;;;;;22.50;18.50;;;;;14.39;54.54;101934.91;5092446;27;45245;-45
2022/10/07 06:08:19;;;;;;;;;24.75;16.50;;;;;14.36;54.20;101930.59;5093259;27;45679;-45
2022/10/07 06:13:30;;;;;;;;;16.75;14.50;;;;;14.36;54.09;101932.31;5091924;27;45698;-44
2022/10/07 06:16:08;;;;;;;;;16.25;15.00;;;;;14.36;54.44;101937.59;5090378;27;45366;-44
2022/10/07 06:18:36;;;;;;;;;19.50;15.00;;;;;14.37;54.33;101936.72;5083222;27;45335;-45
2022/10/07 06:21:02;;;;;;;;;23.00;17.00;;;;;14.37;54.62;101926.19;5093494;27;45477;-47
2022/10/07 06:23:28;;;;;;;;;20.50;15.25;;;;;14.39;54.30;101929.63;5094611;27;45490;-49
2022/10/07 06:25:58;;;;;;;;;17.75;14.00;;;;;14.41;54.22;101933.09;5075198;27;45591;-55
2022/10/07 06:28:24;;;;;;;;;16.25;14.00;;;;;14.40;54.63;101934.88;5093361;27;45518;-49
2022/10/07 06:30:50;;;;;;;;;18.50;14.25;;;;;14.39;54.49;101927.84;5087560;27;45545;-42
2022/10/07 06:33:17;;;;;;;;;17.25;14.50;;;;;14.42;54.58;101933.06;5083756;27;46019;-46
2022/10/07 06:35:43;;;;;;;;;16.25;14.50;;;;;14.43;54.63;101931.31;5093755;27;45320;-46
2022/10/07 06:38:08;;;;;;;;;21.75;16.00;;;;;14.44;54.64;101927.75;5085868;27;45180;-45
2022/10/07 06:40:34;;;;;;;;;21.75;18.25;;;;;14.46;54.45;101927.72;5061712;27;45462;-43
2022/10/07 06:42:59;;;;;;;;;20.50;15.00;;;;;14.43;54.33;101926.03;5096701;27;45475;-46
2022/10/07 06:45:24;;;;;;;;;17.75;12.25;;;;;14.44;54.43;101928.63;5094285;27;63133;-43
2022/10/07 06:47:51;;;;;;;;;16.50;15.00;;;;;14.44;54.44;101935.66;5101654;27;45313;-42
2022/10/07 06:50:17;;;;;;;;;18.00;14.50;;;;;14.42;54.31;101933.06;5099530;27;45465;-43
2022/10/07 06:52:43;;;;;;;;;11.75;10.00;;;;;14.41;54.52;101928.72;5087942;27;46083;-44
2022/10/07 06:55:08;;;;;;;;;9.25;7.00;;;;;14.42;54.21;101930.44;5099488;27;45308;-45
2022/10/07 06:57:34;;;;;;;;;21.00;16.50;;;;;14.43;54.59;101929.53;5099736;27;45335;-44
2022/10/07 07:00:00;;;;;;;;;17.00;15.00;;;;;14.44;54.31;101930.41;5083574;27;45478;-43
2022/10/07 07:02:29;;;;;;;;;25.00;18.00;;;;;14.48;54.33;101932.03;5100751;27;47238;-46
2022/10/07 07:04:54;;;;;;;;;16.75;13.00;;;;;14.50;54.43;101932.91;5098430;27;45942;-44
2022/10/07 07:07:23;;;;;;;;;21.75;16.50;;;;;14.52;54.35;101927.56;5098087;27;47117;-43
2022/10/07 07:09:48;;;;;;;;;14.25;10.00;;;;;14.55;54.16;101932.75;5072683;27;45333;-46
2022/10/07 07:12:14;;;;;;;;;19.00;17.00;;;;;14.57;54.41;101931.84;5093714;27;45948;-46
2022/10/07 07:14:40;;;;;;;;;17.50;13.50;;;;;14.60;54.33;101936.19;5100101;27;68392;-45
2022/10/07 07:17:05;;;;;;;;;15.25;14.00;;;;;14.63;54.33;101935.25;5066640;27;45394;-46
2022/10/07 07:19:31;;;;;;;;;25.50;17.50;;;;;14.66;54.43;101937.81;5094009;27;45442;-45
2022/10/07 07:21:56;;;;;;;;;19.75;14.25;;;;;14.69;53.99;101929.81;5098035;27;62133;-43
2022/10/07 07:24:21;;;;;;;;;15.00;14.25;;;;;14.69;54.24;101933.31;5074685;27;45339;-45
2022/10/07 07:26:47;;;;;;;;;18.75;15.00;;;;;14.73;54.09;101928.84;5098478;27;45241;-45
2022/10/07 07:29:13;;;;;;;;;18.75;15.00;;;;;14.74;54.08;101918.25;5089139;27;45258;-44
2022/10/07 07:31:39;;;;;;;;;15.25;13.00;;;;;14.78;53.99;101926.94;5083282;27;48375;-44
2022/10/07 07:34:10;;;;;;;;;21.25;15.25;;;;;14.80;53.87;101931.28;5073661;27;45321;-43
2022/10/07 07:36:36;;;;;;;;;21.25;16.75;;;;;14.83;54.19;101922.44;5081543;27;45340;-43
2022/10/07 07:39:05;;;;;;;;;20.25;16.25;;;;;14.85;54.15;101927.66;5078695;28;45493;-48
2022/10/07 07:41:34;;;;;;;;;16.00;14.50;;;;;14.86;54.39;101927.63;5086479;27;46157;-42
2022/10/07 07:44:03;;;;;;;;;22.50;16.25;;;;;14.89;54.11;101917.03;5082055;27;45850;-41
2022/10/07 07:46:33;;;;;;;;;17.75;16.00;;;;;14.93;54.25;101920.44;5100544;27;45319;-41
2022/10/07 07:48:58;;;;;;;;;18.25;14.25;;;;;14.96;54.31;101917.69;5095308;27;45554;-40
2022/10/07 07:51:24;;;;;;;;;17.25;13.50;;;;;14.98;54.21;101910.66;5083901;27;61778;-40
2022/10/07 07:53:49;;;;;;;;;9.50;6.25;;;;;15.03;54.04;101915.78;5053931;27;45351;-40
2022/10/07 07:56:15;;;;;;;;;15.00;12.25;;;;;15.07;53.66;101920.94;5100460;27;45316;-40
2022/10/07 07:58:40;;;;;;;;;24.25;21.50;;;;;15.10;53.76;101914.69;5100302;27;45319;-40
2022/10/07 08:01:12;;;;;;;;;46.25;35.25;;;;;15.15;53.95;101918.09;5100205;27;46005;-40
2022/10/07 08:03:39;;;;;;;;;31.50;24.75;;;;;15.18;53.65;101918.00;5061049;28;45478;-40
2022/10/07 08:06:06;;;;;;;;;22.00;15.25;;;;;15.22;53.43;101924.06;5090529;27;45249;-40
2022/10/07 08:08:31;;;;;;;;;17.25;14.00;;;;;15.26;53.31;101917.78;5088028;27;45301;-40
2022/10/07 08:11:05;;;;;;;;;16.00;12.75;;;;;15.29;53.49;101913.28;5089269;27;45300;-40
2022/10/07 08:13:31;;;;;;;;;13.00;10.75;;;;;15.33;53.12;101909.69;5092993;27;45341;-40
2022/10/07 08:15:57;;;;;;;;;19.00;12.25;;;;;15.36;53.30;101917.47;5095938;27;45376;-40
2022/10/07 08:18:23;;;;;;;;;19.50;15.50;;;;;15.38;53.09;101915.66;5083487;27;45479;-40
2022/10/07 08:20:58;;;;;;;;;50.00;37.75;;;;;15.44;52.78;101912.00;5099845;27;47089;-40
2022/10/07 08:23:25;;;;;;;;;31.50;23.00;;;;;15.50;53.17;101916.25;5091788;27;46057;-40
2022/10/07 08:25:58;;;;;;;;;26.25;22.50;;;;;15.54;52.99;101900.25;5088010;27;45378;-40
2022/10/07 08:28:24;;;;;;;;;51.25;38.50;;;;;15.60;52.81;101904.53;5080736;27;45431;-40
2022/10/07 08:30:50;;;;;;;;;19.75;15.00;;;;;15.63;52.35;101904.41;5085219;27;48147;-40
2022/10/07 08:33:16;;;;;;;;;23.25;18.75;;;;;15.67;52.13;101903.44;5101289;27;47022;-40
2022/10/07 08:35:42;;;;;;;;;14.00;13.75;;;;;15.72;52.37;101890.97;5103402;27;45506;-39
2022/10/07 08:38:07;;;;;;;;;12.00;11.00;;;;;15.77;51.99;101892.63;5082989;27;45369;-40
2022/10/07 08:40:34;;;;;;;;;13.50;9.75;;;;;15.84;51.88;101889.75;5081609;28;47376;-40
2022/10/07 08:43:00;;;;;;;;;17.25;12.25;;;;;15.88;51.68;101888.75;5097892;27;45327;-40
2022/10/07 08:45:30;;;;;;;;;15.00;12.75;;;;;15.93;51.92;101885.94;5088753;27;60480;-41
2022/10/07 08:47:57;;;;;;;;;13.75;11.75;;;;;15.99;51.63;101880.50;5085457;27;45439;-40
2022/10/07 08:50:55;;;;;;;;;18.50;12.25;;;;;16.04;51.41;101883.88;5084446;27;46713;-40
2022/10/07 08:53:29;;;;;;;;;14.50;12.25;;;;;16.09;51.79;101876.63;5093342;27;45839;-40
2022/10/07 08:56:19;;;;;;;;;16.25;8.25;;;;;16.16;51.21;101881.72;5102967;27;45436;-40
2022/10/07 08:58:57;;;;;;;;;25.00;12.25;;;;;16.21;51.30;101882.44;5101072;27;45263;-43
2022/10/07 09:01:34;;;;;;;;;16.75;13.00;;;;;16.23;50.75;101873.56;5103381;27;46760;-43
2022/10/07 09:04:07;;;;;;;;;20.75;14.50;;;;;16.28;51.32;101871.63;5075231;27;45915;-44
2022/10/07 09:06:46;;;;;;;;;20.00;14.00;;;;;16.35;51.28;101867.00;5099189;27;45545;-44
2022/10/07 09:09:16;;;;;;;;;12.75;12.50;;;;;16.39;50.96;101860.69;5101328;27;45240;-43
2022/10/07 09:11:44;;;;;;;;;15.75;14.25;;;;;16.43;50.76;101866.75;5081217;28;47250;-44
2022/10/07 09:14:30;;;;;;;;;21.00;15.25;;;;;16.50;50.68;101866.50;5071061;28;45372;-45
2022/10/07 09:17:01;;;;;;;;;18.50;13.25;;;;;16.57;50.72;101855.72;5052963;28;45273;-44
2022/10/07 09:19:35;;;;;;;;;15.25;11.00;;;;;16.61;50.32;101852.03;5098889;27;45493;-43
2022/10/07 09:22:20;;;;;;;;;9.75;9.25;;;;;16.65;50.16;101845.75;5102048;27;45725;-45
2022/10/07 09:24:48;;;;;;;;;11.75;10.75;;;;;16.69;50.05;101850.00;5093142;27;45472;-45
2022/10/07 09:27:15;;;;;;;;;14.75;11.25;;;;;16.74;50.17;101842.78;5102566;27;45365;-43
2022/10/07 09:29:41;;;;;;;;;11.00;11.00;;;;;16.78;50.01;101841.75;5080979;28;47111;-44
2022/10/07 09:32:10;;;;;;;;;16.00;10.00;;;;;16.82;49.77;101839.88;5077799;28;45542;-43
2022/10/07 09:34:36;;;;;;;;;11.00;9.50;;;;;16.85;49.95;101834.50;5098698;27;45556;-45
2022/10/07 09:37:33;;;;;;;;;10.75;8.00;;;;;16.91;49.24;101830.78;5095408;27;60441;-44
2022/10/07 09:40:19;;;;;;;;;12.00;9.00;;;;;16.96;49.60;101831.47;5022827;27;45411;-45
2022/10/07 09:42:45;;;;;;;;;13.00;9.25;;;;;16.99;48.91;101818.16;5080524;27;46934;-45
2022/10/07 09:45:38;;;;;;;;;11.25;6.00;;;;;17.05;49.55;101817.91;5101913;27;45555;-43
2022/10/07 09:48:18;;;;;;;;;11.25;9.75;;;;;17.08;49.43;101816.00;5074045;28;45343;-46
2022/10/07 09:50:43;;;;;;;;;8.00;7.75;;;;;17.15;48.95;101813.16;5079377;27;45451;-47
2022/10/07 09:53:29;;;;;;;;;13.75;9.50;;;;;17.17;49.04;101808.66;5102359;27;46253;-44
2022/10/07 09:55:54;;;;;;;;;13.00;10.00;;;;;17.22;48.22;101804.06;5095483;27;45618;-44
2022/10/07 09:58:31;;;;;;;;;14.25;11.50;;;;;17.28;48.75;101806.47;5102550;27;45275;-47
2022/10/07 10:01:00;;;;;;;;;19.75;11.25;;;;;17.30;48.54;101803.75;5102005;27;45272;-45
2022/10/07 10:03:31;;;;;;;;;15.00;13.50;;;;;17.32;48.49;101792.22;5080969;27;46708;-45
2022/10/07 10:05:59;;;;;;;;;12.00;10.75;;;;;17.36;48.18;101795.63;5096394;27;45484;-45
2022/10/07 10:08:28;;;;;;;;;10.50;8.25;;;;;17.41;48.33;101793.66;5079008;27;45450;-46
2022/10/07 10:10:55;;;;;;;;;12.50;8.25;;;;;17.44;48.05;101790.88;5083411;27;45186;-45
2022/10/07 10:13:29;;;;;;;;;11.75;8.50;;;;;17.50;48.21;101790.63;5082870;27;46299;-45
2022/10/07 10:15:55;;;;;;;;;6.75;6.75;;;;;17.53;48.21;101790.53;5089800;27;45311;-45
2022/10/07 10:18:30;;;;;;;;;14.75;9.00;;;;;17.57;47.97;101775.38;5078207;27;45308;-47
2022/10/07 10:21:18;;;;;;;;;14.75;7.00;;;;;17.60;47.69;101780.53;5093345;27;45414;-44
2022/10/07 10:23:46;;;;;;;;;10.75;6.50;;;;;17.63;47.80;101775.13;5082571;27;45438;-45
2022/10/07 10:26:26;;;;;;;;;9.50;5.00;;;;;17.65;47.51;101773.28;5081030;27;45502;-45
2022/10/07 10:29:13;;;;;;;;;8.00;5.75;;;;;17.69;47.11;101777.53;5088965;27;45500;-49
2022/10/07 10:31:41;;;;;;;;;6.25;5.00;;;;;17.73;47.09;101773.84;5095156;27;45449;-45
2022/10/07 10:34:28;;;;;;;;;7.00;4.75;;;;;17.76;46.82;101768.44;5086629;27;46070;-45
2022/10/07 10:37:04;;;;;;;;;5.25;4.50;;;;;17.78;46.72;101763.94;5092957;27;45688;-44
2022/10/07 10:39:46;;;;;;;;;11.25;6.00;;;;;17.80;47.07;101759.44;5083201;27;45252;-46
2022/10/07 10:42:14;;;;;;;;;7.00;3.00;;;;;17.75;46.19;101756.09;5079368;28;45409;-46
2022/10/07 10:45:06;;;;;;;;;4.00;4.00;;;;;17.76;46.49;101755.19;5075274;27;45460;-45
2022/10/07 10:47:55;;;;;;;;;6.50;4.00;;;;;17.80;46.12;101755.94;5066681;27;45418;-44
2022/10/07 10:50:43;;;;;;;;;4.50;3.50;;;;;17.81;45.87;101745.28;5079796;28;45329;-44
2022/10/07 10:53:37;;;;;;;;;23.50;16.50;;;;;17.83;46.16;101743.44;5076145;27;45338;-45
2022/10/07 10:56:08;;;;;;;;;9.75;8.25;;;;;17.89;46.10;101744.97;5097299;27;45406;-44
2022/10/07 10:58:43;;;;;;;;;6.00;6.00;;;;;17.93;46.39;101743.06;5088137;27;45631;-44
2022/10/07 11:01:11;;;;;;;;;6.00;4.25;;;;;17.98;46.00;101741.09;5101333;27;45473;-44
2022/10/07 11:03:46;;;;;;;;;5.25;4.75;;;;;18.02;45.98;101740.03;5101485;27;45293;-44
2022/10/07 11:06:15;;;;;;;;;10.50;5.00;;;;;18.06;45.74;101728.41;5082381;27;46457;-45
2022/10/07 11:08:41;;;;;;;;;8.25;4.00;;;;;18.10;45.13;101724.69;5100971;27;45798;-45
2022/10/07 11:11:16;;;;;;;;;7.50;5.00;;;;;18.16;45.28;101724.41;5079469;28;45432;-45
2022/10/07 11:13:49;;;;;;;;;7.50;5.75;;;;;18.17;45.07;101726.13;5081396;27;45263;-47
2022/10/07 11:16:35;;;;;;;;;6.50;5.00;;;;;18.18;44.96;101714.63;5082312;27;46567;-45
2022/10/07 11:19:08;;;;;;;;;10.50;6.75;;;;;18.22;44.81;101710.06;5082371;27;45822;-46
2022/10/07 11:21:40;;;;;;;;;7.50;4.50;;;;;18.23;44.30;101703.81;5079605;28;45273;-46
2022/10/07 11:24:17;;;;;;;;;7.25;4.75;;;;;18.26;44.57;101708.13;5076454;27;45319;-44
2022/10/07 11:26:50;;;;;;;;;7.75;4.75;;;;;18.27;43.90;101699.22;5100032;27;45470;-45
2022/10/07 11:29:52;;;;;;;;;6.75;1.75;;;;;18.29;43.53;101698.25;5079219;27;45259;-47
2022/10/07 11:32:30;;;;;;;;;5.00;2.75;;;;;18.32;43.88;101697.25;5100981;27;45398;-48